WZZ8JX LUKK-LHBP
Flight info
| Callsign | WZZ8JX |
|---|---|
| Flight time | 1h 5m |
| Altitude | 36000 |
| Route | NUNTA DCT OBARA DCT BUDOP DCT KEZAL |
| Aircraft | A21N/M-SDE1E2E3FGIJ1J4RWXY/LB1 |
Departure
| Time | 2026-05-09 16:47 |
|---|---|
| Airport | Chişinău International Airport (LUKK) |
Arrival
| Time | 2026-05-09 17:52 |
|---|---|
| Airport | Budapest Liszt Ferenc International Airport (LHBP) |
| Time | Latitude | Longitude | Altitude | Speed | Heading |
|---|---|---|---|---|---|
| 2026-05-09 16:16 | 46.93372 | 28.93602 | 413 ft | 0 kts | 7° |
| 2026-05-09 16:40 | 46.93373 | 28.93603 | 413 ft | 1 kts | 7° |
| 2026-05-09 16:40 | 46.93385 | 28.93605 | 413 ft | 0 kts | 7° |
| 2026-05-09 16:42 | 46.93303 | 28.93471 | 411 ft | 15 kts | 186° |
| 2026-05-09 16:42 | 46.93194 | 28.93451 | 415 ft | 10 kts | 185° |
| 2026-05-09 16:42 | 46.93143 | 28.93518 | 416 ft | 12 kts | 97° |
| 2026-05-09 16:42 | 46.93132 | 28.93647 | 414 ft | 13 kts | 97° |
| 2026-05-09 16:43 | 46.93120 | 28.93783 | 413 ft | 14 kts | 97° |
| 2026-05-09 16:43 | 46.93106 | 28.93939 | 413 ft | 17 kts | 96° |
| 2026-05-09 16:43 | 46.93093 | 28.94122 | 411 ft | 19 kts | 96° |
| 2026-05-09 16:43 | 46.93078 | 28.94315 | 411 ft | 20 kts | 97° |
| 2026-05-09 16:44 | 46.93060 | 28.94522 | 413 ft | 21 kts | 97° |
| 2026-05-09 16:44 | 46.93041 | 28.94743 | 414 ft | 23 kts | 97° |
| 2026-05-09 16:44 | 46.93020 | 28.94978 | 416 ft | 24 kts | 97° |
| 2026-05-09 16:44 | 46.93000 | 28.95102 | 413 ft | 6 kts | 149° |
| 2026-05-09 16:45 | 46.92957 | 28.95113 | 415 ft | 7 kts | 176° |
| 2026-05-09 16:45 | 46.92903 | 28.95115 | 415 ft | 8 kts | 178° |
| 2026-05-09 16:45 | 46.92842 | 28.95118 | 412 ft | 4 kts | 178° |
| 2026-05-09 16:45 | 46.92826 | 28.95100 | 414 ft | 4 kts | 240° |
| 2026-05-09 16:46 | 46.92820 | 28.95056 | 414 ft | 2 kts | 268° |
| 2026-05-09 16:46 | 46.92820 | 28.95051 | 414 ft | 0 kts | 267° |
| 2026-05-09 16:46 | 46.92815 | 28.94865 | 414 ft | 52 kts | 268° |
| 2026-05-09 16:46 | 46.92797 | 28.93960 | 415 ft | 123 kts | 268° |
| 2026-05-09 16:47 | 46.92776 | 28.92503 | 674 ft | 146 kts | 269° |
| 2026-05-09 16:47 | 46.92756 | 28.91075 | 1304 ft | 136 kts | 267° |
| 2026-05-09 16:47 | 46.92710 | 28.89667 | 1700 ft | 144 kts | 262° |
| 2026-05-09 16:47 | 46.92662 | 28.88150 | 1955 ft | 156 kts | 265° |
| 2026-05-09 16:48 | 46.92622 | 28.86425 | 2223 ft | 184 kts | 264° |
| 2026-05-09 16:48 | 46.92581 | 28.84436 | 2678 ft | 206 kts | 265° |
| 2026-05-09 16:48 | 46.92535 | 28.82236 | 3136 ft | 230 kts | 266° |
| 2026-05-09 16:48 | 46.92484 | 28.79763 | 3588 ft | 255 kts | 266° |
| 2026-05-09 16:49 | 46.92427 | 28.77080 | 4234 ft | 270 kts | 267° |
| 2026-05-09 16:49 | 46.92368 | 28.74296 | 5103 ft | 276 kts | 266° |
| 2026-05-09 16:49 | 46.92312 | 28.71475 | 6040 ft | 279 kts | 268° |
| 2026-05-09 16:50 | 46.93225 | 28.65900 | 7770 ft | 287 kts | 288° |
| 2026-05-09 16:50 | 46.93871 | 28.63116 | 8614 ft | 291 kts | 288° |
| 2026-05-09 16:50 | 46.94516 | 28.60287 | 9444 ft | 295 kts | 288° |
| 2026-05-09 16:50 | 46.95156 | 28.57413 | 10219 ft | 301 kts | 287° |
| 2026-05-09 16:51 | 46.95815 | 28.54411 | 10633 ft | 319 kts | 287° |
| 2026-05-09 16:51 | 46.96505 | 28.51240 | 11051 ft | 334 kts | 287° |
| 2026-05-09 16:51 | 46.97214 | 28.47965 | 11719 ft | 340 kts | 287° |
| 2026-05-09 16:51 | 46.97931 | 28.44642 | 12493 ft | 344 kts | 287° |
| 2026-05-09 16:52 | 46.98653 | 28.41283 | 13260 ft | 348 kts | 287° |
| 2026-05-09 16:52 | 46.99382 | 28.37882 | 14010 ft | 352 kts | 287° |
| 2026-05-09 16:52 | 47.00117 | 28.34450 | 14704 ft | 355 kts | 287° |
| 2026-05-09 16:52 | 47.00858 | 28.30983 | 15397 ft | 358 kts | 286° |
| 2026-05-09 16:53 | 47.01602 | 28.27492 | 16108 ft | 361 kts | 286° |
| 2026-05-09 16:53 | 47.02354 | 28.23963 | 16804 ft | 364 kts | 286° |
| 2026-05-09 16:53 | 47.03112 | 28.20405 | 17501 ft | 367 kts | 286° |
| 2026-05-09 16:53 | 47.03975 | 28.16862 | 18209 ft | 371 kts | 289° |
| 2026-05-09 16:54 | 47.04871 | 28.13301 | 18838 ft | 373 kts | 288° |
| 2026-05-09 16:54 | 47.05646 | 28.09659 | 19441 ft | 375 kts | 283° |
| 2026-05-09 16:54 | 47.06315 | 28.05956 | 20028 ft | 378 kts | 283° |
| 2026-05-09 16:54 | 47.07020 | 28.02230 | 20597 ft | 381 kts | 284° |
| 2026-05-09 16:55 | 47.07511 | 27.99751 | 20974 ft | 383 kts | 285° |
| 2026-05-09 16:55 | 47.08277 | 27.95999 | 21533 ft | 385 kts | 285° |
| 2026-05-09 16:55 | 47.09059 | 27.92231 | 22063 ft | 388 kts | 285° |
| 2026-05-09 16:55 | 47.09848 | 27.88433 | 22566 ft | 391 kts | 284° |
| 2026-05-09 16:56 | 47.10386 | 27.84522 | 23027 ft | 391 kts | 273° |
| 2026-05-09 16:56 | 47.10490 | 27.80530 | 23484 ft | 393 kts | 269° |
| 2026-05-09 16:56 | 47.10506 | 27.76517 | 23872 ft | 394 kts | 269° |
| 2026-05-09 16:56 | 47.10516 | 27.72486 | 24303 ft | 396 kts | 268° |
| 2026-05-09 16:57 | 47.10532 | 27.68430 | 24752 ft | 398 kts | 269° |
| 2026-05-09 16:57 | 47.10553 | 27.64355 | 25201 ft | 401 kts | 269° |
| 2026-05-09 16:57 | 47.10576 | 27.60254 | 25642 ft | 403 kts | 269° |
| 2026-05-09 16:57 | 47.10598 | 27.56129 | 26066 ft | 406 kts | 269° |
| 2026-05-09 16:58 | 47.10620 | 27.51977 | 26508 ft | 408 kts | 268° |
| 2026-05-09 16:58 | 47.10566 | 27.47806 | 26921 ft | 410 kts | 267° |
| 2026-05-09 16:58 | 47.10572 | 27.43610 | 27329 ft | 412 kts | 269° |
| 2026-05-09 16:58 | 47.10629 | 27.39390 | 27736 ft | 415 kts | 269° |
| 2026-05-09 16:59 | 47.10674 | 27.35148 | 28140 ft | 417 kts | 269° |
| 2026-05-09 16:59 | 47.10702 | 27.30887 | 28552 ft | 418 kts | 268° |
| 2026-05-09 16:59 | 47.10720 | 27.26608 | 28955 ft | 420 kts | 268° |
| 2026-05-09 16:59 | 47.10733 | 27.22370 | 29308 ft | 422 kts | 268° |
| 2026-05-09 17:00 | 47.10744 | 27.18002 | 29685 ft | 424 kts | 268° |
| 2026-05-09 17:00 | 47.10752 | 27.13659 | 30039 ft | 426 kts | 268° |
| 2026-05-09 17:00 | 47.10759 | 27.09354 | 30318 ft | 429 kts | 268° |
| 2026-05-09 17:00 | 47.10764 | 27.04964 | 30595 ft | 431 kts | 268° |
| 2026-05-09 17:01 | 47.10769 | 27.00565 | 30891 ft | 432 kts | 268° |
| 2026-05-09 17:01 | 47.10770 | 26.96147 | 31197 ft | 434 kts | 268° |
| 2026-05-09 17:01 | 47.10777 | 26.91717 | 31481 ft | 435 kts | 268° |
| 2026-05-09 17:01 | 47.10784 | 26.87272 | 31792 ft | 436 kts | 268° |
| 2026-05-09 17:02 | 47.10784 | 26.82822 | 32153 ft | 435 kts | 267° |
| 2026-05-09 17:02 | 47.10777 | 26.78405 | 32546 ft | 432 kts | 267° |
| 2026-05-09 17:02 | 47.10861 | 26.73991 | 32914 ft | 432 kts | 270° |
| 2026-05-09 17:02 | 47.10984 | 26.69597 | 33270 ft | 430 kts | 269° |
| 2026-05-09 17:03 | 47.11054 | 26.65218 | 33625 ft | 429 kts | 269° |
| 2026-05-09 17:04 | 47.10652 | 26.34933 | 35435 ft | 422 kts | 267° |
| 2026-05-09 17:05 | 47.10628 | 26.30635 | 35655 ft | 421 kts | 267° |
| 2026-05-09 17:05 | 47.10608 | 26.26340 | 35862 ft | 421 kts | 267° |
| 2026-05-09 17:05 | 47.10587 | 26.22044 | 36060 ft | 420 kts | 268° |
| 2026-05-09 17:06 | 47.10530 | 26.13430 | 36130 ft | 426 kts | 268° |
| 2026-05-09 17:06 | 47.10470 | 26.04667 | 36104 ft | 433 kts | 267° |
| 2026-05-09 17:07 | 47.10396 | 25.95776 | 36102 ft | 438 kts | 267° |
| 2026-05-09 17:07 | 47.10323 | 25.86784 | 36104 ft | 442 kts | 267° |
| 2026-05-09 17:08 | 47.10246 | 25.77770 | 36101 ft | 441 kts | 267° |
| 2026-05-09 17:08 | 47.10107 | 25.64317 | 36089 ft | 441 kts | 267° |
| 2026-05-09 17:09 | 47.10005 | 25.55308 | 36090 ft | 441 kts | 267° |
| 2026-05-09 17:09 | 47.09895 | 25.46300 | 36095 ft | 441 kts | 267° |
| 2026-05-09 17:10 | 47.09779 | 25.37326 | 36089 ft | 440 kts | 267° |
| 2026-05-09 17:10 | 47.09656 | 25.28348 | 36083 ft | 440 kts | 268° |
| 2026-05-09 17:11 | 47.09526 | 25.19379 | 36090 ft | 440 kts | 268° |
| 2026-05-09 17:11 | 47.09389 | 25.10400 | 36083 ft | 440 kts | 268° |
| 2026-05-09 17:12 | 47.09244 | 25.01426 | 36080 ft | 440 kts | 267° |
| 2026-05-09 17:12 | 47.09093 | 24.92449 | 36074 ft | 440 kts | 267° |
| 2026-05-09 17:13 | 47.08934 | 24.83472 | 36080 ft | 440 kts | 267° |
| 2026-05-09 17:13 | 47.08769 | 24.74500 | 36068 ft | 440 kts | 267° |
| 2026-05-09 17:14 | 47.08597 | 24.65529 | 36072 ft | 440 kts | 267° |
| 2026-05-09 17:14 | 47.08418 | 24.56559 | 36079 ft | 440 kts | 268° |
| 2026-05-09 17:15 | 47.08232 | 24.47616 | 36070 ft | 438 kts | 268° |
| 2026-05-09 17:15 | 47.07794 | 24.38712 | 36057 ft | 439 kts | 264° |
| 2026-05-09 17:17 | 47.06931 | 24.02963 | 36058 ft | 436 kts | 271° |
| 2026-05-09 17:18 | 47.06943 | 23.94066 | 36059 ft | 436 kts | 268° |
| 2026-05-09 17:18 | 47.06742 | 23.85175 | 36063 ft | 436 kts | 268° |
| 2026-05-09 17:19 | 47.06501 | 23.76286 | 36061 ft | 436 kts | 268° |
| 2026-05-09 17:19 | 47.06254 | 23.67462 | 36061 ft | 436 kts | 267° |
| 2026-05-09 17:20 | 47.06001 | 23.58585 | 36066 ft | 435 kts | 267° |
| 2026-05-09 17:20 | 47.05740 | 23.49719 | 36055 ft | 436 kts | 267° |
| 2026-05-09 17:21 | 47.05472 | 23.40843 | 36053 ft | 436 kts | 267° |
| 2026-05-09 17:21 | 47.05171 | 23.31968 | 36054 ft | 436 kts | 267° |
| 2026-05-09 17:22 | 47.04875 | 23.23096 | 36053 ft | 436 kts | 267° |
| 2026-05-09 17:22 | 47.04594 | 23.14232 | 36063 ft | 434 kts | 267° |
| 2026-05-09 17:23 | 47.04302 | 23.05396 | 36057 ft | 434 kts | 267° |
| 2026-05-09 17:23 | 47.04021 | 22.96569 | 36056 ft | 434 kts | 267° |
| 2026-05-09 17:25 | 47.03237 | 22.70087 | 36059 ft | 433 kts | 273° |
| 2026-05-09 17:25 | 47.03739 | 22.61342 | 36057 ft | 433 kts | 274° |
| 2026-05-09 17:26 | 47.04265 | 22.52541 | 36046 ft | 433 kts | 274° |
| 2026-05-09 17:26 | 47.04585 | 22.43723 | 36050 ft | 433 kts | 275° |
| 2026-05-09 17:27 | 47.05231 | 22.34942 | 36050 ft | 433 kts | 275° |
| 2026-05-09 17:27 | 47.05775 | 22.26159 | 36056 ft | 432 kts | 274° |
| 2026-05-09 17:28 | 47.06262 | 22.17482 | 36049 ft | 424 kts | 274° |
| 2026-05-09 17:28 | 47.06738 | 22.08796 | 36046 ft | 430 kts | 274° |
| 2026-05-09 17:29 | 47.06974 | 22.04461 | 35673 ft | 421 kts | 274° |
| 2026-05-09 17:29 | 47.07213 | 22.00213 | 35361 ft | 420 kts | 274° |
| 2026-05-09 17:29 | 47.07449 | 21.95950 | 35073 ft | 417 kts | 273° |
| 2026-05-09 17:29 | 47.07668 | 21.91713 | 34810 ft | 416 kts | 273° |
| 2026-05-09 17:30 | 47.07882 | 21.87483 | 34579 ft | 416 kts | 273° |
| 2026-05-09 17:30 | 47.08102 | 21.83255 | 34342 ft | 416 kts | 273° |
| 2026-05-09 17:30 | 47.08317 | 21.79024 | 34102 ft | 416 kts | 273° |
| 2026-05-09 17:30 | 47.08536 | 21.74791 | 33686 ft | 415 kts | 273° |
| 2026-05-09 17:31 | 47.08749 | 21.70588 | 32995 ft | 413 kts | 273° |
| 2026-05-09 17:31 | 47.08967 | 21.66389 | 32286 ft | 412 kts | 273° |
| 2026-05-09 17:32 | 47.09803 | 21.49790 | 29806 ft | 402 kts | 273° |
| 2026-05-09 17:32 | 47.10005 | 21.45709 | 29158 ft | 399 kts | 273° |
| 2026-05-09 17:32 | 47.10198 | 21.41716 | 28536 ft | 396 kts | 272° |
| 2026-05-09 17:33 | 47.10392 | 21.37704 | 27939 ft | 392 kts | 272° |
| 2026-05-09 17:33 | 47.10584 | 21.33734 | 27357 ft | 388 kts | 272° |
| 2026-05-09 17:33 | 47.10771 | 21.29802 | 26767 ft | 385 kts | 272° |
| 2026-05-09 17:33 | 47.10954 | 21.25892 | 26177 ft | 383 kts | 272° |
| 2026-05-09 17:34 | 47.11129 | 21.22011 | 25617 ft | 380 kts | 272° |
| 2026-05-09 17:35 | 47.12169 | 20.99104 | 22068 ft | 369 kts | 272° |
| 2026-05-09 17:35 | 47.12338 | 20.95356 | 21480 ft | 367 kts | 272° |
| 2026-05-09 17:36 | 47.12503 | 20.91631 | 20910 ft | 365 kts | 273° |
| 2026-05-09 17:36 | 47.12665 | 20.87924 | 20370 ft | 362 kts | 273° |
| 2026-05-09 17:36 | 47.12826 | 20.84243 | 19852 ft | 360 kts | 273° |
| 2026-05-09 17:36 | 47.12988 | 20.80585 | 19351 ft | 358 kts | 274° |
| 2026-05-09 17:37 | 47.13146 | 20.76948 | 18875 ft | 357 kts | 274° |
| 2026-05-09 17:37 | 47.13303 | 20.73317 | 18414 ft | 356 kts | 274° |
| 2026-05-09 17:37 | 47.13455 | 20.69691 | 17903 ft | 356 kts | 274° |
| 2026-05-09 17:37 | 47.13608 | 20.66065 | 17401 ft | 355 kts | 274° |
| 2026-05-09 17:38 | 47.13760 | 20.62449 | 16916 ft | 355 kts | 274° |
| 2026-05-09 17:38 | 47.13912 | 20.58832 | 16433 ft | 355 kts | 274° |
| 2026-05-09 17:38 | 47.14059 | 20.55221 | 15959 ft | 354 kts | 274° |
| 2026-05-09 17:39 | 47.14354 | 20.48010 | 15043 ft | 353 kts | 274° |
| 2026-05-09 17:39 | 47.14500 | 20.44408 | 14576 ft | 353 kts | 274° |
| 2026-05-09 17:39 | 47.14641 | 20.40830 | 14096 ft | 349 kts | 274° |
| 2026-05-09 17:39 | 47.14688 | 20.39631 | 13934 ft | 347 kts | 274° |
| 2026-05-09 17:40 | 47.14825 | 20.36174 | 13428 ft | 341 kts | 274° |
| 2026-05-09 17:40 | 47.14962 | 20.32723 | 12954 ft | 334 kts | 274° |
| 2026-05-09 17:40 | 47.15093 | 20.29353 | 12513 ft | 327 kts | 274° |
| 2026-05-09 17:40 | 47.15221 | 20.26044 | 12058 ft | 321 kts | 274° |
| 2026-05-09 17:41 | 47.15426 | 20.22803 | 11591 ft | 318 kts | 281° |
| 2026-05-09 17:41 | 47.15985 | 20.19656 | 11173 ft | 318 kts | 287° |
| 2026-05-09 17:41 | 47.16614 | 20.16551 | 10798 ft | 314 kts | 287° |
| 2026-05-09 17:41 | 47.17020 | 20.14547 | 10641 ft | 305 kts | 286° |
| 2026-05-09 17:42 | 47.17794 | 20.10665 | 10417 ft | 287 kts | 286° |
| 2026-05-09 17:42 | 47.18159 | 20.08827 | 10259 ft | 280 kts | 286° |
| 2026-05-09 17:42 | 47.18695 | 20.06094 | 9886 ft | 276 kts | 286° |
| 2026-05-09 17:42 | 47.19221 | 20.03398 | 9442 ft | 273 kts | 286° |
| 2026-05-09 17:43 | 47.19745 | 20.00707 | 9029 ft | 274 kts | 286° |
| 2026-05-09 17:43 | 47.20270 | 19.98005 | 8635 ft | 275 kts | 286° |
| 2026-05-09 17:43 | 47.20796 | 19.95297 | 8255 ft | 276 kts | 286° |
| 2026-05-09 17:43 | 47.21322 | 19.92586 | 7895 ft | 276 kts | 286° |
| 2026-05-09 17:44 | 47.21844 | 19.89889 | 7544 ft | 272 kts | 286° |
| 2026-05-09 17:44 | 47.22359 | 19.87227 | 7178 ft | 271 kts | 286° |
| 2026-05-09 17:44 | 47.22874 | 19.84556 | 6801 ft | 272 kts | 286° |
| 2026-05-09 17:44 | 47.23389 | 19.81883 | 6428 ft | 272 kts | 286° |
| 2026-05-09 17:45 | 47.23905 | 19.79209 | 6071 ft | 270 kts | 286° |
| 2026-05-09 17:45 | 47.24413 | 19.76560 | 5686 ft | 267 kts | 286° |
| 2026-05-09 17:45 | 47.24914 | 19.73938 | 5302 ft | 266 kts | 287° |
| 2026-05-09 17:45 | 47.25417 | 19.71315 | 4938 ft | 266 kts | 287° |
| 2026-05-09 17:46 | 47.25920 | 19.68692 | 4575 ft | 265 kts | 287° |
| 2026-05-09 17:46 | 47.26416 | 19.66099 | 4194 ft | 262 kts | 287° |
| 2026-05-09 17:46 | 47.26910 | 19.63518 | 3802 ft | 261 kts | 287° |
| 2026-05-09 17:46 | 47.27397 | 19.60961 | 3425 ft | 259 kts | 287° |
| 2026-05-09 17:47 | 47.27883 | 19.58407 | 3084 ft | 257 kts | 287° |
| 2026-05-09 17:47 | 47.28353 | 19.55934 | 2979 ft | 244 kts | 287° |
| 2026-05-09 17:47 | 47.28795 | 19.53607 | 2960 ft | 227 kts | 287° |
| 2026-05-09 17:47 | 47.29209 | 19.51411 | 2964 ft | 221 kts | 288° |
| 2026-05-09 17:48 | 47.29833 | 19.49360 | 2972 ft | 220 kts | 305° |
| 2026-05-09 17:48 | 47.30845 | 19.47676 | 2982 ft | 220 kts | 320° |
| 2026-05-09 17:48 | 47.31926 | 19.46094 | 2989 ft | 219 kts | 312° |
| 2026-05-09 17:48 | 47.32956 | 19.44455 | 2985 ft | 212 kts | 312° |
| 2026-05-09 17:49 | 47.33920 | 19.42908 | 2849 ft | 199 kts | 313° |
| 2026-05-09 17:49 | 47.34842 | 19.41424 | 2618 ft | 196 kts | 313° |
| 2026-05-09 17:49 | 47.35750 | 19.39961 | 2380 ft | 187 kts | 313° |
| 2026-05-09 17:49 | 47.36604 | 19.38585 | 2189 ft | 175 kts | 313° |
| 2026-05-09 17:50 | 47.37399 | 19.37302 | 1950 ft | 162 kts | 313° |
| 2026-05-09 17:50 | 47.38729 | 19.35160 | 1504 ft | 130 kts | 314° |
| 2026-05-09 17:50 | 47.39337 | 19.34181 | 1336 ft | 130 kts | 314° |
| 2026-05-09 17:51 | 47.39942 | 19.33196 | 1163 ft | 130 kts | 313° |
| 2026-05-09 17:51 | 47.40547 | 19.32220 | 1003 ft | 129 kts | 314° |
| 2026-05-09 17:51 | 47.41145 | 19.31241 | 839 ft | 128 kts | 313° |
| 2026-05-09 17:51 | 47.41749 | 19.30272 | 666 ft | 128 kts | 313° |
| 2026-05-09 17:52 | 47.42346 | 19.29303 | 477 ft | 127 kts | 314° |
| 2026-05-09 17:52 | 47.42884 | 19.28437 | 459 ft | 90 kts | 312° |
| 2026-05-09 17:52 | 47.43182 | 19.27958 | 466 ft | 47 kts | 312° |
| 2026-05-09 17:52 | 47.43335 | 19.27624 | 471 ft | 35 kts | 287° |
| 2026-05-09 17:53 | 47.43381 | 19.27336 | 466 ft | 21 kts | 283° |
| 2026-05-09 17:53 | 47.43414 | 19.27120 | 464 ft | 22 kts | 282° |
| 2026-05-09 17:53 | 47.43473 | 19.26927 | 464 ft | 21 kts | 318° |
| 2026-05-09 17:53 | 47.43541 | 19.26816 | 462 ft | 15 kts | 312° |
| 2026-05-09 17:54 | 47.43615 | 19.26696 | 464 ft | 17 kts | 313° |
| 2026-05-09 17:54 | 47.43697 | 19.26565 | 463 ft | 18 kts | 313° |
| 2026-05-09 17:54 | 47.43755 | 19.26465 | 462 ft | 10 kts | 290° |
| 2026-05-09 17:54 | 47.43720 | 19.26376 | 463 ft | 11 kts | 221° |
| 2026-05-09 17:55 | 47.43668 | 19.26351 | 463 ft | 8 kts | 151° |
| 2026-05-09 17:55 | 47.43640 | 19.26392 | 463 ft | 5 kts | 153° |
| 2026-05-09 17:55 | 47.43608 | 19.26372 | 463 ft | 4 kts | 224° |
| 2026-05-09 17:55 | 47.43596 | 19.26355 | 462 ft | 2 kts | 222° |
| 2026-05-09 17:56 | 47.43591 | 19.26350 | 462 ft | 0 kts | 222° |